Data for 01/21/2011

Time Sea-Level Adjusted Pressure Absolute Pressure Temperature Relative Humidity Dew Point   
(mb) (inHg) (mb) (inHg) (C) (F) (%) (C) (F)
00:05 1017 30.03 846 24.98 0.5 32.8 65 -5.4 22.2
00:10 1017 30.03 846 24.98 0.4 32.7 65 -5.4 22.4
00:15 1017 30.03 846 24.98 0.5 32.8 65 -5.3 22.5
00:20 1017 30.03 846 24.98 0.5 32.9 68 -4.8 23.3
00:25 1017 30.03 846 24.98 0.2 32.4 70 -4.7 23.6
00:30 1017 30.03 846 24.98 0 32 70 -4.8 23.3
00:35 1017 30.03 846 24.98 0.1 32.1 70 -4.9 23.3
00:40 1017 30.03 846 24.98 0 32 69 -5 23
00:45 1017 30.03 846 24.98 0 32 70 -4.8 23.4
00:50 1017 30.03 846 24.98 -0 32 70 -4.9 23.2
00:55 1017 30.03 846 24.98 -0.1 31.8 71 -4.7 23.5
01:00 1017 30.03 846 24.98 -0.1 31.7 69 -5.1 22.8
01:05 1017 30.03 846 24.98 -0 32 69 -5 23
01:10 1017 30.03 846 24.98 -0 32 70 -4.9 23.2
01:15 1017 30.03 846 24.98 -0 32 68 -5.3 22.4
01:20 1017 30.03 846 24.98 0.4 32.7 64 -5.6 21.9
01:25 1017 30.03 846 24.98 0.8 33.4 62 -5.7 21.8
01:30 1017 30.03 846 24.98 1 33.8 62 -5.5 22
01:35 1017 30.03 846 24.98 1.1 33.9 62 -5.4 22.3
01:40 1017 30.03 846 24.98 1 33.8 63 -5.3 22.4
01:45 1017 30.03 846 24.98 0.9 33.6 62 -5.5 22
01:50 1017 30.03 846 24.98 0.9 33.7 62 -5.5 22.1
01:55 1017 30.03 846 24.98 0.9 33.7 62 -5.5 22
02:00 1017 30.03 847 25.01 0.9 33.6 63 -5.4 22.3
02:05 1018 30.06 847 25.01 0.7 33.3 64 -5.4 22.3
02:10 1018 30.06 847 25.01 0.8 33.4 63 -5.4 22.2
02:15 1018 30.06 847 25.01 0.7 33.3 64 -5.3 22.4
02:20 1018 30.06 847 25.01 0.3 32.5 67 -5.1 22.8
02:25 1018 30.06 847 25.01 -0.1 31.8 69 -5.2 22.6
02:30 1018 30.06 847 25.01 -0.1 31.7 69 -5.3 22.5
02:35 1018 30.06 847 25.01 -0 32 68 -5.2 22.6
02:40 1018 30.06 847 25.01 0.1 32.2 68 -5.1 22.8
02:45 1018 30.06 847 25.01 0.2 32.4 68 -5 23
02:50 1018 30.06 847 25.01 0.3 32.5 68 -5 23.1
02:55 1018 30.06 847 25.01 0.2 32.4 68 -4.9 23.2
03:00 1018 30.06 847 25.01 0.3 32.5 68 -5 23
03:05 1018 30.06 847 25.01 0.4 32.7 67 -5 22.9
03:10 1018 30.06 847 25.01 0.4 32.8 67 -4.9 23.1
03:15 1018 30.06 847 25.01 0.3 32.6 67 -5.1 22.8
03:20 1018 30.06 848 25.04 0.3 32.6 67 -5 23
03:25 1018 30.06 848 25.04 0.3 32.5 68 -5 23.1
03:30 1018 30.06 848 25.04 0.1 32.2 68 -5.1 22.8
03:35 1018 30.06 848 25.04 0.2 32.3 67 -5.3 22.4
03:40 1018 30.06 848 25.04 0.3 32.6 66 -5.2 22.6
03:45 1019 30.09 848 25.04 0.4 32.8 65 -5.3 22.5
03:50 1019 30.09 848 25.04 0.5 33 65 -5.2 22.6
03:55 1019 30.09 848 25.04 0.6 33.1 65 -5.2 22.6
04:00 1019 30.09 848 25.04 0.5 32.9 66 -5.2 22.7
04:05 1019 30.09 848 25.04 0.5 32.9 65 -5.3 22.5
04:10 1019 30.09 848 25.04 0.4 32.7 66 -5.2 22.7
04:15 1019 30.09 848 25.04 0.3 32.5 66 -5.3 22.5
04:20 1019 30.09 848 25.04 0.3 32.5 66 -5.3 22.5
04:25 1019 30.09 848 25.04 0.2 32.4 66 -5.3 22.5
04:30 1019 30.09 848 25.04 0.2 32.4 67 -5.3 22.5
04:35 1019 30.09 848 25.04 0.2 32.3 68 -5.1 22.8
04:40 1019 30.09 848 25.04 0.1 32.2 68 -5.1 22.9
04:45 1019 30.09 848 25.04 -0 31.9 68 -5.2 22.6
04:50 1019 30.09 848 25.04 -0.2 31.7 69 -5.2 22.7
04:55 1019 30.09 848 25.04 -0.5 31.1 70 -5.3 22.5
05:00 1019 30.09 848 25.04 -0.6 31 70 -5.4 22.3
05:05 1019 30.09 848 25.04 -0.5 31.2 70 -5.2 22.6
05:10 1018 30.06 848 25.04 -0.2 31.6 68 -5.4 22.2
05:15 1019 30.09 848 25.04 0.1 32.2 67 -5.3 22.4
05:20 1019 30.09 848 25.04 0.3 32.6 67 -5.2 22.7
05:25 1019 30.09 848 25.04 0.4 32.7 66 -5.2 22.6
05:30 1019 30.09 848 25.04 0.2 32.4 68 -4.9 23.2
05:35 1019 30.09 848 25.04 -0.2 31.7 68 -5.3 22.5
05:40 1019 30.09 848 25.04 -0.1 31.8 67 -5.5 22.1
05:45 1019 30.09 848 25.04 0.2 32.4 65 -5.5 22
05:50 1019 30.09 848 25.04 0.6 33.1 65 -5.2 22.7
05:55 1019 30.09 848 25.04 0.5 33 65 -5.3 22.5
06:00 1019 30.09 848 25.04 0.5 32.8 65 -5.5 22.2
06:05 1019 30.09 848 25.04 0.4 32.6 62 -6 21.1
06:10 1019 30.09 848 25.04 0.6 33 61 -6 21.2
06:15 1019 30.09 848 25.04 0.6 33 61 -6.1 21
06:20 1019 30.09 848 25.04 0.6 33 61 -6.1 21
06:25 1019 30.09 848 25.04 0.5 33 61 -6.1 21
06:30 1019 30.09 848 25.04 0.5 32.8 62 -6 21.2
06:35 1019 30.09 848 25.04 0.4 32.6 62 -6.1 20.9
06:40 1019 30.09 848 25.04 0.3 32.6 62 -6.1 20.9
06:45 1019 30.09 848 25.04 0.4 32.6 62 -6.1 21
06:50 1019 30.09 848 25.04 0.2 32.4 62 -6.2 20.9
06:55 1019 30.09 848 25.04 0.2 32.4 62 -6.2 20.8
07:00 1019 30.09 848 25.04 0.1 32.2 63 -6.1 21
07:05 1019 30.09 848 25.04 -0.2 31.6 63 -6.3 20.6
07:10 1019 30.09 848 25.04 -0.1 31.9 63 -6.4 20.5
07:15 1019 30.09 848 25.04 0.1 32.2 63 -6.2 20.8
07:20 1019 30.09 848 25.04 0 32 63 -6.2 20.8
07:25 1019 30.09 848 25.04 -0.1 31.9 63 -6.2 20.8
07:30 1019 30.09 848 25.04 -0.3 31.5 66 -5.9 21.3
07:35 1019 30.09 848 25.04 -0.4 31.2 64 -6.3 20.6
07:40 1019 30.09 848 25.04 -0.6 31 66 -6.2 20.8
07:45 1019 30.09 848 25.04 -0.2 31.7 64 -6.3 20.7
07:50 1019 30.09 848 25.04 0 32 63 -6.2 20.9
07:55 1019 30.09 848 25.04 0 32.1 63 -6.1 21
08:00 1019 30.09 848 25.04 -0.1 31.8 64 -6.1 20.9
08:05 1019 30.09 848 25.04 -0.3 31.4 65 -6.1 21
08:10 1019 30.09 848 25.04 -0.5 31 65 -6.3 20.7
08:15 1019 30.09 849 25.07 -1.2 29.8 68 -6.3 20.6
08:20 1019 30.09 849 25.07 -1 30.2 67 -6.3 20.6
08:25 1019 30.09 849 25.07 -0.6 30.9 66 -6.3 20.7
08:30 1019 30.09 849 25.07 -0.4 31.3 64 -6.4 20.5
08:35 1019 30.09 849 25.07 -0.6 30.9 64 -6.5 20.3
08:40 1019 30.09 848 25.04 0.2 32.4 61 -6.5 20.4
08:45 1019 30.09 848 25.04 1 33.8 58 -6.3 20.7
08:50 1019 30.09 848 25.04 1.4 34.5 55 -6.6 20.2
08:55 1019 30.09 849 25.07 1.5 34.7 56 -6.3 20.6
09:00 1019 30.09 849 25.07 1.4 34.4 56 -6.4 20.4
09:05 1019 30.09 849 25.07 1 33.9 54 -7.2 19
09:10 1020 30.12 849 25.07 0.5 33 55 -7.5 18.5
09:15 1019 30.09 849 25.07 0.6 33.1 55 -7.4 18.7
09:20 1019 30.09 849 25.07 0.6 33 55 -7.4 18.6
09:25 1019 30.09 849 25.07 0.4 32.6 55 -7.6 18.4
09:30 1019 30.09 849 25.07 0.5 33 54 -7.8 18
09:35 1019 30.09 849 25.07 0.7 33.3 52 -8 17.5
09:40 1019 30.09 849 25.07 1.2 34.2 50 -8.2 17.3
09:45 1019 30.09 849 25.07 1.6 34.9 49 -8.1 17.4
09:50 1019 30.09 849 25.07 2.1 35.8 47 -8.1 17.4
09:55 1019 30.09 849 25.07 2.4 36.3 47 -7.9 17.8
10:00 1019 30.09 848 25.04 2.3 36.1 46 -8.1 17.5
10:05 1019 30.09 848 25.04 2.7 36.9 47 -7.6 18.3
10:10 1019 30.09 848 25.04 2.9 37.3 46 -7.6 18.3
10:15 1019 30.09 848 25.04 2.6 36.7 48 -7.4 18.6
10:20 1019 30.09 848 25.04 2.1 35.8 50 -7.4 18.7
10:25 1019 30.09 848 25.04 2.4 36.2 48 -7.6 18.3
10:30 1019 30.09 848 25.04 2.7 36.9 47 -7.4 18.6
10:35 1019 30.09 848 25.04 3.2 37.8 46 -7.4 18.6
10:40 1019 30.09 848 25.04 3.5 38.2 46 -7.2 19
10:45 1019 30.09 848 25.04 4 39.2 44 -7.2 19
10:50 1019 30.09 848 25.04 4.2 39.6 43 -7.2 19.1
10:55 1019 30.09 848 25.04 4.4 39.9 41 -7.8 18
11:00 1019 30.09 848 25.04 4 39.3 43 -7.4 18.7
11:05 1019 30.09 848 25.04 4.2 39.6 43 -7.3 18.9
11:10 1019 30.09 848 25.04 4.2 39.5 44 -7.1 19.2
11:15 1019 30.09 848 25.04 4.4 39.9 43 -7.1 19.2
11:20 1019 30.09 848 25.04 4.6 40.3 42 -7.3 18.9
11:25 1019 30.09 848 25.04 4.7 40.5 43 -6.7 20
11:30 1019 30.09 848 25.04 4 39.3 42 -7.6 18.3
11:35 1018 30.06 848 25.04 4.5 40.1 41 -7.6 18.3
11:40 1018 30.06 848 25.04 5.1 41.2 40 -7.4 18.6
11:45 1018 30.06 848 25.04 5.3 41.5 41 -6.8 19.8
11:50 1018 30.06 847 25.01 5.3 41.6 40 -7.2 19.1
11:55 1018 30.06 847 25.01 5.8 42.5 39 -7 19.3
12:00 1018 30.06 847 25.01 5.9 42.7 40 -6.8 19.8
12:05 1018 30.06 847 25.01 6.4 43.4 37 -7.2 19.1
12:10 1018 30.06 847 25.01 6.5 43.7 36 -7.3 18.8
12:15 1018 30.06 847 25.01 6.3 43.3 37 -7.4 18.7
12:20 1018 30.06 847 25.01 6.2 43.2 38 -7.1 19.1
12:25 1018 30.06 847 25.01 5.9 42.6 38 -7.2 19.1
12:30 1018 30.06 847 25.01 6.1 43 38 -7.1 19.1
12:35 1018 30.06 847 25.01 6.4 43.5 38 -6.8 19.8
12:40 1018 30.06 847 25.01 6 42.7 41 -6.4 20.6
12:45 1018 30.06 847 25.01 5.3 41.5 43 -6.2 20.9
12:50 1017 30.03 847 25.01 5.1 41.2 43 -6.5 20.4
12:55 1017 30.03 846 24.98 5.5 41.9 40 -6.9 19.6
13:00 1017 30.03 846 24.98 6.1 43 39 -6.9 19.6
13:05 1017 30.03 846 24.98 5.6 42.1 42 -6.4 20.5
13:10 1017 30.03 846 24.98 5.4 41.7 43 -6.3 20.7
13:15 1017 30.03 846 24.98 4.6 40.3 48 -5.5 22
13:20 1016 30 846 24.98 3.4 38.2 49 -6.3 20.6
13:25 1016 30 846 24.98 2.9 37.2 52 -6.1 21.1
13:30 1016 30 845 24.95 2.4 36.3 52 -6.6 20.1
13:35 1016 30 845 24.95 2.2 35.9 52 -6.8 19.8
13:40 1016 30 845 24.95 2.2 35.9 51 -6.8 19.7
13:45 1016 30 845 24.95 2.5 36.6 52 -6.3 20.6
13:50 1016 30 845 24.95 2.9 37.3 53 -5.8 21.5
13:55 1016 30 845 24.95 3.3 38 50 -6.1 21
14:00 1016 30 845 24.95 2.8 37 52 -6.2 20.9
14:05 1016 30 845 24.95 2.6 36.6 52 -6.2 20.8
14:10 1015 29.97 845 24.95 2.5 36.5 50 -6.9 19.6
14:15 1015 29.97 844 24.92 2.8 37.1 49 -6.7 19.9
14:20 1015 29.97 844 24.92 3.2 37.7 50 -6.2 20.8
14:25 1015 29.97 844 24.92 3.2 37.8 48 -6.8 19.8
14:30 1015 29.97 844 24.92 3.3 38 49 -6.3 20.7
14:35 1015 29.97 844 24.92 3.6 38.4 47 -6.8 19.7
14:40 1015 29.97 844 24.92 3.4 38.1 48 -6.5 20.3
14:45 1015 29.97 844 24.92 3.5 38.3 49 -6.3 20.6
14:50 1015 29.97 844 24.92 3.6 38.5 47 -6.5 20.2
14:55 1015 29.97 844 24.92 3.7 38.6 46 -6.8 19.8
15:00 1014 29.94 844 24.92 3.8 38.9 45 -7 19.4
15:05 1014 29.94 843 24.89 3.9 39 47 -6.4 20.6
15:10 1014 29.94 843 24.89 3.6 38.5 48 -6.4 20.6
15:15 1014 29.94 843 24.89 3.5 38.3 49 -6.3 20.7
15:20 1014 29.94 843 24.89 3.4 38.1 49 -6.4 20.4
15:25 1014 29.94 843 24.89 3.3 38 49 -6.4 20.5
15:30 1014 29.94 843 24.89 3.4 38.2 50 -6.1 21
15:35 1013 29.91 843 24.89 3.4 38.2 50 -6.1 21.1
15:40 1013 29.91 843 24.89 3.5 38.3 49 -6.1 21
15:45 1013 29.91 842 24.86 3.5 38.3 51 -5.7 21.7
15:50 1013 29.91 842 24.86 3.4 38.1 50 -6 21.2
15:55 1013 29.91 842 24.86 3.2 37.8 51 -5.9 21.3
16:00 1013 29.91 842 24.86 3.3 37.9 50 -6.1 21
16:05 1013 29.91 842 24.86 3.4 38.1 49 -6.3 20.6
16:10 1013 29.91 842 24.86 3.3 37.9 50 -6.2 20.9
16:15 1012 29.88 842 24.86 3.3 37.9 50 -6.1 21.1
16:20 1012 29.88 841 24.83 3.3 38 49 -6.3 20.6
16:25 1012 29.88 841 24.83 3.2 37.7 49 -6.6 20.1
16:30 1012 29.88 841 24.83 3.2 37.8 49 -6.4 20.4
16:35 1012 29.88 841 24.83 3.3 38 50 -6.2 20.9
16:40 1012 29.88 841 24.83 3.3 38 52 -5.6 22
16:45 1012 29.88 841 24.83 3.2 37.8 51 -6 21.3
16:50 1012 29.88 841 24.83 3.2 37.8 51 -6 21.3
16:55 1012 29.88 841 24.83 3.3 37.9 50 -6.2 20.9
17:00 1011 29.85 841 24.83 3.4 38.2 48 -6.6 20.2
17:05 1011 29.85 840 24.81 3.6 38.5 49 -6.2 20.8
17:10 1011 29.85 840 24.81 3.6 38.5 50 -5.8 21.5
17:15 1011 29.85 840 24.81 3.8 38.8 51 -5.6 22
17:20 1011 29.85 840 24.81 3.7 38.7 52 -5.3 22.5
17:25 1011 29.85 840 24.81 3.6 38.5 48 -6.3 20.6
17:30 1011 29.85 840 24.81 4 39.2 47 -6.4 20.5
17:35 1011 29.85 840 24.81 4.5 40 48 -5.7 21.7
17:40 1011 29.85 840 24.81 4.3 39.8 53 -4.4 24.1
17:45 1010 29.83 840 24.81 3.7 38.6 53 -5.1 22.8
17:50 1010 29.83 839 24.78 3.6 38.4 53 -5.2 22.6
17:55 1010 29.83 839 24.78 3.7 38.6 52 -5.3 22.4
18:00 1010 29.83 839 24.78 4 39.1 50 -5.5 22
18:05 1010 29.83 839 24.78 3.9 39.1 52 -5.2 22.7
18:10 1010 29.83 839 24.78 3.8 38.9 49 -5.8 21.6
18:15 1010 29.83 839 24.78 3.9 39.1 49 -5.9 21.5
18:20 1009 29.8 839 24.78 5 41.1 46 -5.5 22.1
18:25 1009 29.8 839 24.78 5.4 41.8 45 -5.4 22.2
18:30 1009 29.8 838 24.75 5.5 42 47 -5 23
18:35 1009 29.8 838 24.75 5.5 41.9 48 -4.7 23.6
18:40 1009 29.8 838 24.75 5.3 41.6 48 -4.9 23.2
18:45 1009 29.8 838 24.75 5.3 41.5 48 -4.9 23.2
18:50 1009 29.8 838 24.75 5.1 41.2 50 -4.4 24.1
18:55 1009 29.8 838 24.75 5 41 49 -4.9 23.2
19:00 1009 29.8 838 24.75 5.1 41.3 48 -4.9 23.2
19:05 1008 29.77 838 24.75 5.1 41.2 50 -4.4 24.1
19:10 1008 29.77 838 24.75 5.2 41.3 48 -4.9 23.1
19:15 1008 29.77 838 24.75 5.4 41.6 49 -4.4 24
19:20 1008 29.77 838 24.75 5.3 41.6 48 -4.7 23.5
19:25 1008 29.77 837 24.72 5.5 41.9 49 -4.4 24
19:30 1008 29.77 837 24.72 5.4 41.7 50 -4.1 24.5
19:35 1008 29.77 837 24.72 5.3 41.5 50 -4.3 24.3
19:40 1008 29.77 837 24.72 5.1 41.1 52 -4.1 24.7
19:45 1008 29.77 837 24.72 4.9 40.7 53 -4 24.8
19:50 1008 29.77 837 24.72 4.7 40.5 53 -4 24.8
19:55 1008 29.77 837 24.72 4.7 40.4 53 -4 24.8
20:00 1008 29.77 837 24.72 4.7 40.4 52 -4.3 24.2
20:05 1008 29.77 837 24.72 4.9 40.9 51 -4.2 24.4
20:10 1007 29.74 837 24.72 5 41 53 -3.8 25.1
20:15 1008 29.77 837 24.72 4.9 40.9 52 -4 24.9
20:20 1008 29.77 837 24.72 4.9 40.8 52 -4.1 24.6
20:25 1007 29.74 837 24.72 4.8 40.6 53 -4 24.8
20:30 1007 29.74 837 24.72 5 41 54 -3.5 25.8
20:35 1007 29.74 836 24.69 4.9 40.9 55 -3.4 26
20:40 1007 29.74 836 24.69 5.1 41.2 54 -3.4 26
20:45 1007 29.74 836 24.69 5.1 41.1 56 -3.1 26.4
20:50 1007 29.74 836 24.69 4.8 40.6 58 -2.9 26.9
20:55 1007 29.74 836 24.69 4.7 40.5 57 -3.2 26.3
21:00 1007 29.74 836 24.69 4.8 40.7 57 -3 26.7
21:05 1007 29.74 836 24.69 4.8 40.6 58 -2.9 26.9
21:10 1007 29.74 836 24.69 4.8 40.6 58 -2.8 26.9
21:15 1007 29.74 836 24.69 4.7 40.4 58 -3 26.6
21:20 1007 29.74 836 24.69 4.7 40.4 58 -2.9 26.9
21:25 1007 29.74 836 24.69 4.8 40.6 58 -2.9 26.8
21:30 1007 29.74 836 24.69 4.8 40.6 57 -2.9 26.7
21:35 1007 29.74 836 24.69 4.7 40.4 59 -2.7 27.1
21:40 1007 29.74 836 24.69 4.7 40.4 58 -2.8 26.9
21:45 1007 29.74 836 24.69 4.5 40.1 60 -2.5 27.5
21:50 1007 29.74 836 24.69 4.4 39.9 61 -2.5 27.5
21:55 1007 29.74 836 24.69 4.3 39.7 62 -2.5 27.6
22:00 1007 29.74 836 24.69 4.1 39.4 62 -2.4 27.6
22:05 1007 29.74 836 24.69 4.4 39.9 61 -2.5 27.5
22:10 1007 29.74 836 24.69 4.7 40.4 58 -2.9 26.7
22:15 1007 29.74 836 24.69 5 41.1 56 -2.9 26.8
22:20 1007 29.74 836 24.69 5.2 41.3 57 -2.7 27.1
22:25 1007 29.74 836 24.69 5 41 60 -2.2 28
22:30 1007 29.74 837 24.72 4.7 40.4 60 -2.5 27.6
22:35 1008 29.77 837 24.72 4.7 40.5 59 -2.6 27.3
22:40 1008 29.77 837 24.72 4.7 40.4 60 -2.3 27.8
22:45 1008 29.77 837 24.72 4.5 40.1 61 -2.5 27.6
22:50 1008 29.77 837 24.72 4.5 40.2 61 -2.3 27.8
22:55 1008 29.77 837 24.72 4.4 39.9 61 -2.5 27.4
23:00 1008 29.77 837 24.72 4.4 39.9 61 -2.5 27.6
23:05 1008 29.77 837 24.72 4.3 39.7 59 -3.1 26.5
23:10 1007 29.74 837 24.72 4.5 40.1 59 -2.8 27
23:15 1008 29.77 837 24.72 4.3 39.8 60 -2.6 27.3
23:20 1008 29.77 837 24.72 4.1 39.5 59 -3.2 26.2
23:25 1008 29.77 837 24.72 4.2 39.5 60 -3 26.6
23:30 1008 29.77 837 24.72 4 39.3 60 -3.1 26.5
23:35 1008 29.77 837 24.72 4 39.2 59 -3.2 26.2
23:40 1008 29.77 837 24.72 4 39.2 60 -3.1 26.4
23:45 1008 29.77 837 24.72 3.8 38.8 60 -3.2 26.3
23:50 1008 29.77 837 24.72 3.7 38.7 58 -3.8 25.2
23:55 1008 29.77 837 24.72 4 39.1 56 -3.9 24.9
24:00 1008 29.77 837 24.72 4 39.1 57 -3.8 25.1